Thunder radar more information blitzortung!


Radar de pluja more information rain snow radar


Visita la nostra xarxa de llocs de meteo:

Template documentation
and downloads

And another site



No particular awareness of the weather is required.    There are no Weather-warnings

Pagina Historial Weather Underground text

Diari Resum Juny 8, 2016 Unitats:  Mètric    Imperial   Tant
« Previous Dia
SegĂźent Dia »
Diari Setmana Mensual Anual Personalitzada
  Maxima: Minima: Media:
Temperatura: 31.3 °C 16.3 °C 25.7 °C
Punt de rosada: 16.1 °C 11.2 °C 13.6 °C
Humitat: 76 % 38 % 49 %
Wind Speed: 16.7 km/h 0.0 km/h 4.9 km/h
RĂ fegues de vent: 19.3 km/h - -
Vent:- - SW
Pression baro: 1021.9 hPa 1014.8 hPa -
Precipitacions: 0.0 mm    
Historical Graphs
 
 
Dades de taula per Juny 8, 2016
Temps Temperatura Punt de rosada Pression baro Vent Wind Speed RĂ fegues de vent Humitat Rainfall Rate (Hourly)
00:00 20.9 °C 11.2 °C 1020.9 hPa SSW 1.9 km/h   54 % 0.0 mm
00:05 20.8 °C 11.2 °C 1021.9 hPa SSW 1.9 km/h   54 % 0.0 mm
00:25 17.0 °C 12.3 °C 1019.9 hPa WSW 3.2 km/h 4.8 km/h 74 % 0.0 mm
00:35 16.8 °C 12.6 °C 1019.9 hPa WSW 3.2 km/h 4.8 km/h 76 % 0.0 mm
00:45 17.0 °C 12.3 °C 1019.9 hPa WSW 3.2 km/h 4.8 km/h 74 % 0.0 mm
00:55 17.1 °C 12.6 °C 1019.9 hPa WSW 3.2 km/h 4.8 km/h 75 % 0.0 mm
01:05 17.1 °C 12.6 °C 1019.9 hPa WSW 3.2 km/h 4.8 km/h 75 % 0.0 mm
01:15 16.8 °C 12.1 °C 1019.9 hPa WSW 3.2 km/h 4.8 km/h 74 % 0.0 mm
01:25 16.6 °C 12.2 °C 1019.9 hPa WSW 3.2 km/h 4.8 km/h 75 % 0.0 mm
01:35 16.5 °C 12.1 °C 1019.9 hPa WSW 3.2 km/h 4.8 km/h 75 % 0.0 mm
01:45 16.3 °C 11.7 °C 1019.9 hPa WSW 3.2 km/h 4.8 km/h 74 % 0.0 mm
02:05 16.6 °C 11.9 °C 1020.9 hPa WSW 3.2 km/h 4.8 km/h 74 % 0.0 mm
02:15 16.8 °C 11.9 °C 1020.9 hPa WSW 3.2 km/h 4.8 km/h 73 % 0.0 mm
02:25 16.9 °C 12.0 °C 1019.9 hPa WSW 3.2 km/h 4.8 km/h 73 % 0.0 mm
02:35 17.4 °C 12.1 °C 1019.9 hPa WSW 3.2 km/h 4.8 km/h 71 % 0.0 mm
02:45 17.6 °C 12.1 °C 1019.9 hPa WSW 3.2 km/h 4.8 km/h 70 % 0.0 mm
02:55 17.8 °C 12.3 °C 1019.9 hPa WSW 3.2 km/h 4.8 km/h 70 % 0.0 mm
03:05 18.6 °C 13.0 °C 1020.9 hPa WSW 3.2 km/h 4.8 km/h 70 % 0.0 mm
03:15 19.1 °C 12.8 °C 1020.9 hPa WSW 3.2 km/h 4.8 km/h 67 % 0.0 mm
03:25 19.3 °C 12.8 °C 1019.9 hPa WSW 3.2 km/h 4.8 km/h 66 % 0.0 mm
03:35 19.5 °C 13.0 °C 1019.9 hPa WSW 3.2 km/h 4.8 km/h 66 % 0.0 mm
03:45 19.8 °C 13.1 °C 1019.9 hPa WSW 3.2 km/h 4.8 km/h 65 % 0.0 mm
03:55 20.1 °C 12.8 °C 1020.9 hPa WSW 3.2 km/h 4.8 km/h 63 % 0.0 mm
04:05 20.7 °C 13.2 °C 1020.9 hPa WSW 3.2 km/h 4.8 km/h 62 % 0.0 mm
04:15 21.4 °C 13.6 °C 1020.9 hPa WSW 3.2 km/h 4.8 km/h 61 % 0.0 mm
04:25 22.0 °C 13.6 °C 1020.9 hPa WSW 3.2 km/h 4.8 km/h 59 % 0.0 mm
04:35 22.3 °C 13.6 °C 1020.9 hPa WSW 3.2 km/h 4.8 km/h 58 % 0.0 mm
04:45 23.2 °C 14.2 °C 1020.9 hPa WSW 3.2 km/h 4.8 km/h 57 % 0.0 mm
04:55 24.1 °C 14.5 °C 1020.9 hPa WSW 3.2 km/h 4.8 km/h 55 % 0.0 mm
05:05 24.0 °C 13.8 °C 1019.9 hPa WSW 3.2 km/h 4.8 km/h 53 % 0.0 mm
05:15 24.2 °C 13.4 °C 1019.9 hPa WSW 3.2 km/h 4.8 km/h 51 % 0.0 mm
05:25 24.9 °C 13.8 °C 1019.9 hPa WSW 3.2 km/h 4.8 km/h 50 % 0.0 mm
05:35 25.1 °C 13.3 °C 1018.8 hPa WSW 3.2 km/h 4.8 km/h 48 % 0.0 mm
05:45 25.8 °C 13.9 °C 1018.8 hPa WSW 3.2 km/h 4.8 km/h 48 % 0.0 mm
05:55 26.2 °C 14.3 °C 1018.8 hPa WSW 3.2 km/h 4.8 km/h 48 % 0.0 mm
10:59 26.6 °C 14.3 °C 1018.8 hPa SSW 3.7 km/h 3.7 km/h 47 % 0.0 mm
11:04 26.8 °C 14.6 °C 1018.8 hPa SSW 1.9 km/h 3.5 km/h 47 % 0.0 mm
11:09 27.3 °C 14.7 °C 1018.8 hPa SSW 1.9 km/h 3.5 km/h 46 % 0.0 mm
11:14 27.5 °C 14.5 °C 1018.8 hPa SSW 1.9 km/h 3.5 km/h 45 % 0.0 mm
11:19 27.3 °C 14.0 °C 1018.8 hPa SSW 1.9 km/h 3.5 km/h 44 % 0.0 mm
11:24 28.0 °C 14.9 °C 1018.8 hPa SSW 1.9 km/h 3.5 km/h 45 % 0.0 mm
11:29 28.4 °C 14.9 °C 1018.8 hPa SSW 1.9 km/h 3.5 km/h 44 % 0.0 mm
11:34 28.6 °C 15.2 °C 1017.8 hPa SSW 1.9 km/h 3.5 km/h 44 % 0.0 mm
11:39 29.0 °C 14.8 °C 1017.8 hPa SSW 1.9 km/h 3.5 km/h 42 % 0.0 mm
11:49 28.7 °C 13.8 °C 1017.8 hPa SSW 1.9 km/h 3.5 km/h 40 % 0.0 mm
11:54 28.8 °C 14.2 °C 1017.8 hPa SSW 1.9 km/h 3.5 km/h 41 % 0.0 mm
11:59 28.9 °C 13.9 °C 1017.8 hPa SSW 1.9 km/h 3.5 km/h 40 % 0.0 mm
12:04 29.3 °C 13.5 °C 1017.8 hPa SSW 1.9 km/h 3.5 km/h 38 % 0.0 mm
12:14 29.5 °C 13.7 °C 1017.8 hPa SSW 1.9 km/h 3.5 km/h 38 % 0.0 mm
12:19 29.7 °C 13.9 °C 1017.8 hPa SSW 1.9 km/h 3.5 km/h 38 % 0.0 mm
12:24 29.1 °C 13.7 °C 1017.8 hPa SSW 1.9 km/h 3.5 km/h 39 % 0.0 mm
12:29 28.9 °C 13.9 °C 1017.8 hPa SSW 1.9 km/h 3.5 km/h 40 % 0.0 mm
12:34 28.8 °C 14.2 °C 1017.8 hPa SSW 1.9 km/h 3.5 km/h 41 % 0.0 mm
12:44 28.8 °C 14.2 °C 1017.8 hPa SSW 1.9 km/h 3.5 km/h 41 % 0.0 mm
12:49 28.9 °C 14.3 °C 1017.8 hPa SSW 1.9 km/h 3.5 km/h 41 % 0.0 mm
12:54 28.5 °C 13.9 °C 1017.8 hPa SSW 1.9 km/h 3.5 km/h 41 % 0.0 mm
12:59 28.8 °C 14.2 °C 1017.8 hPa SSW 1.9 km/h 3.5 km/h 41 % 0.0 mm
13:04 29.0 °C 14.1 °C 1016.8 hPa SSW 1.9 km/h 3.5 km/h 40 % 0.0 mm
13:09 28.7 °C 14.5 °C 1016.8 hPa SSW 1.9 km/h 3.5 km/h 42 % 0.0 mm
13:14 28.6 °C 14.4 °C 1016.8 hPa SSW 1.9 km/h 3.5 km/h 42 % 0.0 mm
13:19 28.8 °C 14.6 °C 1016.8 hPa SSW 1.9 km/h 3.5 km/h 42 % 0.0 mm
13:24 28.9 °C 14.7 °C 1016.8 hPa SSW 1.9 km/h 3.5 km/h 42 % 0.0 mm
13:29 29.0 °C 14.4 °C 1016.8 hPa SSW 1.9 km/h 3.5 km/h 41 % 0.0 mm
13:34 28.7 °C 14.5 °C 1016.8 hPa SSW 1.9 km/h 3.5 km/h 42 % 0.0 mm
13:39 28.5 °C 14.3 °C 1016.8 hPa SSW 1.9 km/h 3.5 km/h 42 % 0.0 mm
13:49 28.5 °C 14.7 °C 1016.8 hPa SSW 1.9 km/h 3.5 km/h 43 % 0.0 mm
13:59 28.9 °C 15.1 °C 1016.8 hPa SSW 1.9 km/h 3.5 km/h 43 % 0.0 mm
14:09 29.6 °C 15.3 °C 1016.8 hPa SSW 1.9 km/h 3.5 km/h 42 % 0.0 mm
14:14 30.1 °C 15.8 °C 1016.8 hPa SSW 1.9 km/h 3.5 km/h 42 % 0.0 mm
14:19 30.5 °C 15.8 °C 1015.8 hPa SSW 1.9 km/h 3.5 km/h 41 % 0.0 mm
14:24 31.3 °C 16.1 °C 1015.8 hPa SSW 1.9 km/h 3.5 km/h 40 % 0.0 mm
14:29 31.3 °C 16.1 °C 1015.8 hPa SSW 1.9 km/h 3.5 km/h 40 % 0.0 mm
14:34 31.0 °C 15.4 °C 1015.8 hPa SSW 1.9 km/h 3.5 km/h 39 % 0.0 mm
14:39 30.7 °C 15.6 °C 1015.8 hPa SSW 1.9 km/h 3.5 km/h 40 % 0.0 mm
14:44 30.6 °C 15.1 °C 1015.8 hPa SSW 1.9 km/h 3.5 km/h 39 % 0.0 mm
14:49 30.7 °C 15.6 °C 1015.8 hPa SSW 1.9 km/h 3.5 km/h 40 % 0.0 mm
14:54 30.1 °C 15.0 °C 1015.8 hPa SSW 1.9 km/h 3.5 km/h 40 % 0.0 mm
14:59 30.6 °C 15.4 °C 1015.8 hPa SW 12.6 km/h 12.6 km/h 40 % 0.0 mm
15:04 31.2 °C 15.6 °C 1015.8 hPa SSW 9.3 km/h 9.3 km/h 39 % 0.0 mm
15:09 31.3 °C 15.7 °C 1015.8 hPa WSW 13.0 km/h 13.0 km/h 39 % 0.0 mm
15:14 30.3 °C 15.2 °C 1015.8 hPa South 11.1 km/h 11.1 km/h 40 % 0.0 mm
15:19 30.5 °C 15.4 °C 1015.8 hPa South 13.0 km/h 13.0 km/h 40 % 0.0 mm
15:24 30.9 °C 15.7 °C 1015.8 hPa South 13.0 km/h 13.0 km/h 40 % 0.0 mm
15:29 30.8 °C 15.7 °C 1014.8 hPa WSW 7.4 km/h 7.4 km/h 40 % 0.0 mm
15:34 31.1 °C 15.5 °C 1014.8 hPa SW 6.1 km/h 6.1 km/h 39 % 0.0 mm
15:44 30.1 °C 14.6 °C 1014.8 hPa SSW 16.7 km/h 16.7 km/h 39 % 0.0 mm
15:49 30.7 °C 15.2 °C 1015.8 hPa WSW 9.7 km/h 9.7 km/h 39 % 0.0 mm
15:54 30.3 °C 15.2 °C 1015.8 hPa SW 11.1 km/h 11.1 km/h 40 % 0.0 mm
15:59 30.2 °C 14.7 °C 1015.8 hPa SW 5.8 km/h 5.8 km/h 39 % 0.0 mm
16:04 30.9 °C 15.3 °C 1015.8 hPa SSW 9.3 km/h 9.3 km/h 39 % 0.0 mm
16:09 30.8 °C 15.2 °C 1015.8 hPa SW 9.3 km/h 9.3 km/h 39 % 0.0 mm
16:14 30.7 °C 15.2 °C 1015.8 hPa West 12.2 km/h 12.2 km/h 39 % 0.0 mm
16:19 30.4 °C 14.9 °C 1015.8 hPa SW 13.0 km/h 13.0 km/h 39 % 0.0 mm
16:24 30.4 °C 14.9 °C 1015.8 hPa West 9.3 km/h 9.3 km/h 39 % 0.0 mm
16:29 31.0 °C 15.0 °C 1015.8 hPa SW 7.4 km/h 7.4 km/h 38 % 0.0 mm
16:35 30.5 °C 15.0 °C 1015.8 hPa South 5.6 km/h 5.6 km/h 39 % 0.0 mm
16:40 30.7 °C 15.2 °C 1015.8 hPa WSW 11.1 km/h 11.1 km/h 39 % 0.0 mm
16:45 30.0 °C 14.6 °C 1015.8 hPa SSW 11.1 km/h 11.1 km/h 39 % 0.0 mm
16:50 29.9 °C 14.4 °C 1015.8 hPa SW 9.3 km/h 9.3 km/h 39 % 0.0 mm
16:55 29.9 °C 14.4 °C 1015.8 hPa SW 16.7 km/h 16.7 km/h 39 % 0.0 mm
17:00 29.7 °C 14.3 °C 1015.8 hPa SW 14.8 km/h 14.8 km/h 39 % 0.0 mm
17:05 29.9 °C 14.4 °C 1015.8 hPa WSW 11.1 km/h 11.1 km/h 39 % 0.0 mm
17:10 30.1 °C 14.6 °C 1015.8 hPa SSW 9.3 km/h 9.3 km/h 39 % 0.0 mm
17:15 30.2 °C 14.7 °C 1015.8 hPa SSW 9.3 km/h 9.3 km/h 39 % 0.0 mm
17:20 29.4 °C 14.0 °C 1015.8 hPa WSW 16.7 km/h 16.7 km/h 39 % 0.0 mm
17:25 29.6 °C 14.2 °C 1015.8 hPa SW 13.0 km/h 13.0 km/h 39 % 0.0 mm
17:30 29.5 °C 14.1 °C 1015.8 hPa SW 9.3 km/h 9.3 km/h 39 % 0.0 mm
17:40 29.0 °C 13.7 °C 1015.8 hPa SW 16.7 km/h 16.7 km/h 39 % 0.0 mm
17:45 29.1 °C 13.7 °C 1015.8 hPa SW 10.3 km/h 10.3 km/h 39 % 0.0 mm
17:50 29.4 °C 14.0 °C 1015.8 hPa SSW 14.0 km/h 14.0 km/h 39 % 0.0 mm
17:55 28.9 °C 13.9 °C 1015.8 hPa SW 8.0 km/h 19.3 km/h 40 % 0.0 mm
18:05 29.1 °C 14.1 °C 1015.8 hPa West 9.3 km/h 9.3 km/h 40 % 0.0 mm
18:10 29.3 °C 14.3 °C 1015.8 hPa SW 8.0 km/h 11.3 km/h 40 % 0.0 mm
18:15 29.3 °C 14.3 °C 1015.8 hPa SW 4.8 km/h 12.9 km/h 40 % 0.0 mm
18:20 28.9 °C 14.3 °C 1014.8 hPa SW 9.7 km/h 16.1 km/h 41 % 0.0 mm
18:25 28.6 °C 14.0 °C 1014.8 hPa SW 9.7 km/h 16.1 km/h 41 % 0.0 mm
18:30 28.6 °C 14.1 °C 1014.8 hPa SW 8.0 km/h 14.5 km/h 41 % 0.0 mm
18:40 28.4 °C 13.8 °C 1014.8 hPa SW 8.0 km/h 12.9 km/h 41 % 0.0 mm
18:45 28.2 °C 14.1 °C 1015.1 hPa SW 4.8 km/h 11.3 km/h 42 % 0.0 mm
18:55 28.1 °C 13.6 °C 1015.8 hPa SW 8.0 km/h 12.9 km/h 41 % 0.0 mm
19:00 27.7 °C 13.3 °C 1015.8 hPa SW 8.0 km/h 16.1 km/h 41 % 0.0 mm
19:05 27.8 °C 13.3 °C 1014.8 hPa SW 8.0 km/h 9.7 km/h 41 % 0.0 mm
19:10 27.6 °C 13.2 °C 1014.8 hPa SW 9.7 km/h 14.5 km/h 41 % 0.0 mm
19:15 27.3 °C 12.9 °C 1014.8 hPa SW 3.2 km/h 14.5 km/h 41 % 0.0 mm
19:20 27.3 °C 13.2 °C 1014.8 hPa SW 3.2 km/h 12.9 km/h 42 % 0.0 mm
19:25 27.1 °C 13.1 °C 1014.8 hPa SW 4.8 km/h 12.9 km/h 42 % 0.0 mm
19:30 27.1 °C 13.0 °C 1014.8 hPa SW 4.8 km/h 11.3 km/h 42 % 0.0 mm
19:35 26.8 °C 13.1 °C 1014.8 hPa SW 4.8 km/h 11.3 km/h 43 % 0.0 mm
19:40 26.8 °C 13.2 °C 1014.8 hPa SW 4.8 km/h 8.0 km/h 43 % 0.0 mm
19:45 26.6 °C 13.0 °C 1014.8 hPa SW 8.0 km/h 9.7 km/h 43 % 0.0 mm
19:50 26.4 °C 13.2 °C 1014.8 hPa SW 1.6 km/h 8.0 km/h 44 % 0.0 mm
19:55 26.3 °C 13.1 °C 1014.8 hPa SW 3.2 km/h 8.0 km/h 44 % 0.0 mm
20:00 26.1 °C 12.9 °C 1014.8 hPa SW 4.8 km/h 9.7 km/h 44 % 0.0 mm
20:05 25.9 °C 12.7 °C 1014.8 hPa SW 3.2 km/h 8.0 km/h 44 % 0.0 mm
20:10 25.8 °C 12.6 °C 1014.8 hPa SW 4.8 km/h 8.0 km/h 44 % 0.0 mm
20:15 20.2 °C 12.9 °C 1015.8 hPa WSW 3.2 km/h 4.8 km/h 63 % 0.0 mm
20:20 25.2 °C 12.4 °C 1014.8 hPa SSW 4.8 km/h 6.4 km/h 45 % 0.0 mm
20:25 25.0 °C 12.6 °C 1014.8 hPa SW 10.0 km/h 10.0 km/h 46 % 0.0 mm
20:30 24.8 °C 12.7 °C 1014.8 hPa SW 4.8 km/h 9.7 km/h 47 % 0.0 mm
20:35 24.6 °C 12.8 °C 1014.8 hPa SW 8.0 km/h 8.0 km/h 48 % 0.0 mm
20:40 24.4 °C 12.7 °C 1014.8 hPa SW 3.2 km/h 4.8 km/h 48 % 0.0 mm
20:45 24.3 °C 12.9 °C 1014.8 hPa SSW 8.0 km/h 8.0 km/h 49 % 0.0 mm
20:50 24.1 °C 12.7 °C 1014.8 hPa SSW 8.0 km/h 8.0 km/h 49 % 0.0 mm
20:55 24.0 °C 12.9 °C 1014.8 hPa SW 4.8 km/h 4.8 km/h 50 % 0.0 mm
21:00 23.9 °C 12.8 °C 1014.8 hPa WSW 3.2 km/h 4.8 km/h 50 % 0.0 mm
21:05 23.8 °C 12.7 °C 1014.8 hPa SW 3.2 km/h 3.2 km/h 50 % 0.0 mm
21:10 23.7 °C 12.7 °C 1014.8 hPa SW 3.2 km/h 4.8 km/h 50 % 0.0 mm
21:15 23.6 °C 12.6 °C 1014.8 hPa SW 3.2 km/h 4.8 km/h 50 % 0.0 mm
21:20 23.5 °C 12.5 °C 1014.8 hPa SW 3.2 km/h 4.8 km/h 50 % 0.0 mm
21:25 23.5 °C 12.4 °C 1014.8 hPa SW 3.2 km/h 4.8 km/h 50 % 0.0 mm
21:30 23.3 °C 12.3 °C 1014.8 hPa SW 3.2 km/h 4.8 km/h 50 % 0.0 mm
21:35 23.3 °C 12.6 °C 1014.8 hPa SW 3.2 km/h 4.8 km/h 51 % 0.0 mm
21:40 23.2 °C 12.5 °C 1014.8 hPa SW 3.2 km/h 4.8 km/h 51 % 0.0 mm
21:45 23.1 °C 12.4 °C 1014.8 hPa SW 3.2 km/h 4.8 km/h 51 % 0.0 mm
21:50 23.0 °C 12.3 °C 1014.8 hPa SW 5.6 km/h 5.6 km/h 51 % 0.0 mm
21:55 18.7 °C 12.9 °C 1014.8 hPa Calm     69 % 0.0 mm
22:00 22.8 °C 12.7 °C 1014.8 hPa SW 3.2 km/h 4.8 km/h 53 % 0.0 mm
22:05 22.7 °C 12.6 °C 1014.8 hPa SW 3.2 km/h 4.8 km/h 53 % 0.0 mm
22:10 22.6 °C 12.5 °C 1014.8 hPa SW 3.2 km/h 4.8 km/h 53 % 0.0 mm
22:15 22.5 °C 12.4 °C 1014.8 hPa SW 3.2 km/h 4.8 km/h 53 % 0.0 mm
22:20 22.4 °C 12.6 °C 1014.8 hPa SW 3.2 km/h 4.8 km/h 54 % 0.0 mm
22:25 22.3 °C 12.6 °C 1014.8 hPa SW 3.2 km/h 4.8 km/h 54 % 0.0 mm
22:30 22.2 °C 12.4 °C 1015.1 hPa SW 3.2 km/h 4.8 km/h 54 % 0.0 mm
22:35 22.1 °C 12.3 °C 1015.8 hPa SW 3.2 km/h 4.8 km/h 54 % 0.0 mm
22:40 22.0 °C 12.3 °C 1015.8 hPa SW 3.2 km/h 4.8 km/h 54 % 0.0 mm
22:45 21.9 °C 12.4 °C 1015.8 hPa SW 3.2 km/h 4.8 km/h 55 % 0.0 mm
22:50 21.9 °C 12.4 °C 1015.8 hPa SW 3.2 km/h 4.8 km/h 55 % 0.0 mm
22:55 21.8 °C 12.3 °C 1015.8 hPa SW 5.6 km/h 5.6 km/h 55 % 0.0 mm
23:00 21.8 °C 12.3 °C 1016.1 hPa SW 3.2 km/h 4.8 km/h 55 % 0.0 mm
23:05 21.7 °C 12.3 °C 1016.8 hPa SW 3.2 km/h 4.8 km/h 55 % 0.0 mm
23:10 21.7 °C 12.2 °C 1016.8 hPa SW 3.2 km/h 4.8 km/h 55 % 0.0 mm
23:15 21.5 °C 12.1 °C 1016.8 hPa SW 3.2 km/h 4.8 km/h 55 % 0.0 mm
23:20 21.5 °C 12.1 °C 1015.8 hPa SW 3.2 km/h 4.8 km/h 55 % 0.0 mm
23:25 21.4 °C 12.3 °C 1015.8 hPa SW 3.2 km/h 4.8 km/h 56 % 0.0 mm
23:30 21.3 °C 12.2 °C 1015.8 hPa SW 3.2 km/h 4.8 km/h 56 % 0.0 mm
23:35 21.2 °C 12.1 °C 1015.8 hPa SW 3.2 km/h 4.8 km/h 56 % 0.0 mm
23:40 21.1 °C 12.2 °C 1015.8 hPa SW 3.2 km/h 4.8 km/h 57 % 0.0 mm
23:45 21.0 °C 12.4 °C 1015.8 hPa SW 3.2 km/h 4.8 km/h 58 % 0.0 mm
23:50 20.9 °C 12.6 °C 1015.8 hPa SW 4.2 km/h 4.7 km/h 59 % 0.0 mm
23:55 20.9 °C 12.6 °C 1015.8 hPa SW 3.2 km/h 4.8 km/h 59 % 0.0 mm
Meteo Sesrovires
Elogis d' Weather Underground - 3.5 mb

Guio original per  Jim McMurry - jmcmurry@mwt.net Adaptat per a la plantilla per  Wim van der Kuil - Leuven-Template.eu

Trobareu la nostra informacio del temps tambe a:

Weather Underground

AWEKAS